sensor_id;sensor_type;location;lat;lon;timestamp;P1;durP1;ratioP1;P2;durP2;ratioP2
14052;SDS011;7101;51.600;7.310;2022-12-18T00:00:59;66.37;;;30.80;;
14052;SDS011;7101;51.600;7.310;2022-12-18T00:03:30;60.30;;;30.57;;
14052;SDS011;7101;51.600;7.310;2022-12-18T00:05:58;62.50;;;30.60;;
14052;SDS011;7101;51.600;7.310;2022-12-18T00:08:24;66.53;;;31.40;;
14052;SDS011;7101;51.600;7.310;2022-12-18T00:10:51;65.33;;;30.93;;
14052;SDS011;7101;51.600;7.310;2022-12-18T00:13:18;59.60;;;29.10;;
14052;SDS011;7101;51.600;7.310;2022-12-18T00:15:46;61.73;;;28.97;;
14052;SDS011;7101;51.600;7.310;2022-12-18T00:18:13;67.83;;;31.07;;
14052;SDS011;7101;51.600;7.310;2022-12-18T00:20:40;58.07;;;29.07;;
14052;SDS011;7101;51.600;7.310;2022-12-18T00:23:06;63.23;;;30.57;;
14052;SDS011;7101;51.600;7.310;2022-12-18T00:25:33;59.57;;;28.37;;
14052;SDS011;7101;51.600;7.310;2022-12-18T00:28:00;55.57;;;28.90;;
14052;SDS011;7101;51.600;7.310;2022-12-18T00:30:27;61.53;;;30.40;;
14052;SDS011;7101;51.600;7.310;2022-12-18T00:32:56;67.47;;;30.27;;
14052;SDS011;7101;51.600;7.310;2022-12-18T00:35:23;63.27;;;31.47;;
14052;SDS011;7101;51.600;7.310;2022-12-18T00:37:50;65.67;;;31.00;;
14052;SDS011;7101;51.600;7.310;2022-12-18T00:40:17;69.73;;;31.70;;
14052;SDS011;7101;51.600;7.310;2022-12-18T00:42:44;66.73;;;30.67;;
14052;SDS011;7101;51.600;7.310;2022-12-18T00:45:25;65.73;;;29.40;;
14052;SDS011;7101;51.600;7.310;2022-12-18T00:47:53;63.97;;;29.80;;
14052;SDS011;7101;51.600;7.310;2022-12-18T00:50:22;59.60;;;30.03;;
14052;SDS011;7101;51.600;7.310;2022-12-18T00:52:50;66.73;;;31.70;;
14052;SDS011;7101;51.600;7.310;2022-12-18T00:55:18;63.30;;;30.20;;
14052;SDS011;7101;51.600;7.310;2022-12-18T00:57:45;63.77;;;30.20;;
14052;SDS011;7101;51.600;7.310;2022-12-18T01:00:12;59.03;;;29.27;;
14052;SDS011;7101;51.600;7.310;2022-12-18T01:02:41;57.97;;;28.57;;
14052;SDS011;7101;51.600;7.310;2022-12-18T01:05:08;56.57;;;28.60;;
14052;SDS011;7101;51.600;7.310;2022-12-18T01:07:37;58.33;;;28.47;;
14052;SDS011;7101;51.600;7.310;2022-12-18T01:10:05;60.37;;;29.40;;
14052;SDS011;7101;51.600;7.310;2022-12-18T01:12:33;54.50;;;28.10;;
14052;SDS011;7101;51.600;7.310;2022-12-18T01:15:00;60.27;;;30.10;;
14052;SDS011;7101;51.600;7.310;2022-12-18T01:17:27;54.43;;;29.23;;
14052;SDS011;7101;51.600;7.310;2022-12-18T01:19:53;65.70;;;30.30;;
14052;SDS011;7101;51.600;7.310;2022-12-18T01:22:20;55.97;;;27.73;;
14052;SDS011;7101;51.600;7.310;2022-12-18T01:24:48;64.40;;;29.13;;
14052;SDS011;7101;51.600;7.310;2022-12-18T01:27:15;62.57;;;29.07;;
14052;SDS011;7101;51.600;7.310;2022-12-18T01:29:42;56.60;;;29.47;;
14052;SDS011;7101;51.600;7.310;2022-12-18T01:32:09;56.47;;;28.83;;
14052;SDS011;7101;51.600;7.310;2022-12-18T01:34:36;55.20;;;28.70;;
14052;SDS011;7101;51.600;7.310;2022-12-18T01:37:03;59.43;;;29.00;;
14052;SDS011;7101;51.600;7.310;2022-12-18T01:39:30;61.93;;;28.23;;
14052;SDS011;7101;51.600;7.310;2022-12-18T01:41:59;61.20;;;28.80;;
14052;SDS011;7101;51.600;7.310;2022-12-18T01:44:51;64.30;;;30.93;;
14052;SDS011;7101;51.600;7.310;2022-12-18T01:47:29;57.67;;;28.93;;
14052;SDS011;7101;51.600;7.310;2022-12-18T01:50:00;52.17;;;29.10;;
14052;SDS011;7101;51.600;7.310;2022-12-18T01:52:29;58.70;;;30.27;;
14052;SDS011;7101;51.600;7.310;2022-12-18T01:54:57;54.33;;;28.50;;
14052;SDS011;7101;51.600;7.310;2022-12-18T01:57:27;62.63;;;30.47;;
14052;SDS011;7101;51.600;7.310;2022-12-18T01:59:55;55.30;;;28.97;;
14052;SDS011;7101;51.600;7.310;2022-12-18T02:02:26;57.93;;;28.97;;
14052;SDS011;7101;51.600;7.310;2022-12-18T02:04:54;61.00;;;28.97;;
14052;SDS011;7101;51.600;7.310;2022-12-18T02:07:23;57.20;;;28.50;;
14052;SDS011;7101;51.600;7.310;2022-12-18T02:09:55;57.27;;;29.47;;
14052;SDS011;7101;51.600;7.310;2022-12-18T02:12:27;54.00;;;27.53;;
14052;SDS011;7101;51.600;7.310;2022-12-18T02:15:02;53.57;;;29.10;;
14052;SDS011;7101;51.600;7.310;2022-12-18T02:17:36;57.30;;;28.23;;
14052;SDS011;7101;51.600;7.310;2022-12-18T02:20:08;62.00;;;29.13;;
14052;SDS011;7101;51.600;7.310;2022-12-18T02:22:42;56.97;;;28.67;;
14052;SDS011;7101;51.600;7.310;2022-12-18T02:25:21;55.90;;;28.67;;
14052;SDS011;7101;51.600;7.310;2022-12-18T02:28:00;57.90;;;28.67;;
14052;SDS011;7101;51.600;7.310;2022-12-18T02:30:30;56.67;;;27.93;;
14052;SDS011;7101;51.600;7.310;2022-12-18T02:33:00;66.90;;;28.63;;
14052;SDS011;7101;51.600;7.310;2022-12-18T02:35:30;54.27;;;28.17;;
14052;SDS011;7101;51.600;7.310;2022-12-18T02:37:58;53.60;;;28.43;;
14052;SDS011;7101;51.600;7.310;2022-12-18T02:40:26;57.93;;;29.43;;
14052;SDS011;7101;51.600;7.310;2022-12-18T02:42:54;52.87;;;28.07;;
14052;SDS011;7101;51.600;7.310;2022-12-18T02:45:22;52.77;;;29.37;;
14052;SDS011;7101;51.600;7.310;2022-12-18T02:47:49;54.23;;;28.60;;
14052;SDS011;7101;51.600;7.310;2022-12-18T02:50:18;55.80;;;28.13;;
14052;SDS011;7101;51.600;7.310;2022-12-18T02:52:50;53.87;;;27.87;;
14052;SDS011;7101;51.600;7.310;2022-12-18T02:55:26;58.13;;;28.40;;
14052;SDS011;7101;51.600;7.310;2022-12-18T02:58:01;56.80;;;28.23;;
14052;SDS011;7101;51.600;7.310;2022-12-18T03:00:33;52.00;;;27.97;;
14052;SDS011;7101;51.600;7.310;2022-12-18T03:03:05;48.37;;;26.17;;
14052;SDS011;7101;51.600;7.310;2022-12-18T03:05:38;50.47;;;28.00;;
14052;SDS011;7101;51.600;7.310;2022-12-18T03:08:07;52.40;;;27.47;;
14052;SDS011;7101;51.600;7.310;2022-12-18T03:10:39;54.57;;;29.10;;
14052;SDS011;7101;51.600;7.310;2022-12-18T03:13:12;58.97;;;28.83;;
14052;SDS011;7101;51.600;7.310;2022-12-18T03:15:43;52.13;;;26.30;;
14052;SDS011;7101;51.600;7.310;2022-12-18T03:18:14;49.13;;;26.80;;
14052;SDS011;7101;51.600;7.310;2022-12-18T03:20:46;54.80;;;27.70;;
14052;SDS011;7101;51.600;7.310;2022-12-18T03:23:15;49.90;;;26.70;;
14052;SDS011;7101;51.600;7.310;2022-12-18T03:25:46;52.27;;;27.23;;
14052;SDS011;7101;51.600;7.310;2022-12-18T03:28:16;51.67;;;27.00;;
14052;SDS011;7101;51.600;7.310;2022-12-18T03:30:49;50.63;;;27.00;;
14052;SDS011;7101;51.600;7.310;2022-12-18T03:33:23;53.60;;;26.17;;
14052;SDS011;7101;51.600;7.310;2022-12-18T03:35:53;54.13;;;27.67;;
14052;SDS011;7101;51.600;7.310;2022-12-18T03:38:20;55.83;;;27.30;;
14052;SDS011;7101;51.600;7.310;2022-12-18T03:40:51;50.97;;;27.30;;
14052;SDS011;7101;51.600;7.310;2022-12-18T03:43:27;51.33;;;26.00;;
14052;SDS011;7101;51.600;7.310;2022-12-18T03:46:05;56.40;;;28.90;;
14052;SDS011;7101;51.600;7.310;2022-12-18T03:48:38;52.43;;;27.20;;
14052;SDS011;7101;51.600;7.310;2022-12-18T03:51:10;51.90;;;28.10;;
14052;SDS011;7101;51.600;7.310;2022-12-18T03:53:41;47.90;;;26.03;;
14052;SDS011;7101;51.600;7.310;2022-12-18T03:56:12;51.07;;;27.57;;
14052;SDS011;7101;51.600;7.310;2022-12-18T03:58:42;48.60;;;26.57;;
14052;SDS011;7101;51.600;7.310;2022-12-18T04:01:13;49.60;;;26.97;;
14052;SDS011;7101;51.600;7.310;2022-12-18T04:03:42;48.90;;;27.03;;
14052;SDS011;7101;51.600;7.310;2022-12-18T04:06:10;50.07;;;26.90;;
14052;SDS011;7101;51.600;7.310;2022-12-18T04:08:38;46.53;;;25.57;;
14052;SDS011;7101;51.600;7.310;2022-12-18T04:11:06;49.87;;;26.90;;
14052;SDS011;7101;51.600;7.310;2022-12-18T04:13:34;49.20;;;26.47;;
14052;SDS011;7101;51.600;7.310;2022-12-18T04:16:02;48.70;;;26.07;;
14052;SDS011;7101;51.600;7.310;2022-12-18T04:18:30;55.40;;;27.93;;
14052;SDS011;7101;51.600;7.310;2022-12-18T04:20:57;48.77;;;27.07;;
14052;SDS011;7101;51.600;7.310;2022-12-18T04:23:24;54.50;;;26.53;;
14052;SDS011;7101;51.600;7.310;2022-12-18T04:25:51;48.97;;;26.33;;
14052;SDS011;7101;51.600;7.310;2022-12-18T04:28:18;49.73;;;25.30;;
14052;SDS011;7101;51.600;7.310;2022-12-18T04:30:44;50.33;;;27.50;;
14052;SDS011;7101;51.600;7.310;2022-12-18T04:33:11;45.03;;;24.97;;
14052;SDS011;7101;51.600;7.310;2022-12-18T04:35:40;49.87;;;26.77;;
14052;SDS011;7101;51.600;7.310;2022-12-18T04:38:08;52.17;;;26.13;;
14052;SDS011;7101;51.600;7.310;2022-12-18T04:40:36;47.07;;;25.47;;
14052;SDS011;7101;51.600;7.310;2022-12-18T04:43:03;50.60;;;25.60;;
14052;SDS011;7101;51.600;7.310;2022-12-18T04:45:30;46.03;;;25.23;;
14052;SDS011;7101;51.600;7.310;2022-12-18T04:47:57;49.13;;;25.40;;
14052;SDS011;7101;51.600;7.310;2022-12-18T04:50:24;45.23;;;25.73;;
14052;SDS011;7101;51.600;7.310;2022-12-18T04:52:52;45.93;;;25.17;;
14052;SDS011;7101;51.600;7.310;2022-12-18T04:55:19;48.13;;;25.77;;
14052;SDS011;7101;51.600;7.310;2022-12-18T04:57:46;52.23;;;26.17;;
14052;SDS011;7101;51.600;7.310;2022-12-18T05:00:13;50.70;;;26.43;;
14052;SDS011;7101;51.600;7.310;2022-12-18T05:02:41;49.70;;;26.67;;
14052;SDS011;7101;51.600;7.310;2022-12-18T05:05:08;50.60;;;27.97;;
14052;SDS011;7101;51.600;7.310;2022-12-18T05:07:35;50.83;;;27.53;;
14052;SDS011;7101;51.600;7.310;2022-12-18T05:10:04;54.43;;;27.17;;
14052;SDS011;7101;51.600;7.310;2022-12-18T05:12:32;55.53;;;27.40;;
14052;SDS011;7101;51.600;7.310;2022-12-18T05:14:58;50.80;;;26.43;;
14052;SDS011;7101;51.600;7.310;2022-12-18T05:17:25;43.67;;;24.90;;
14052;SDS011;7101;51.600;7.310;2022-12-18T05:19:52;47.00;;;26.27;;
14052;SDS011;7101;51.600;7.310;2022-12-18T05:22:19;47.43;;;25.27;;
14052;SDS011;7101;51.600;7.310;2022-12-18T05:24:45;52.67;;;26.87;;
14052;SDS011;7101;51.600;7.310;2022-12-18T05:27:14;51.80;;;28.00;;
14052;SDS011;7101;51.600;7.310;2022-12-18T05:29:40;56.60;;;28.23;;
14052;SDS011;7101;51.600;7.310;2022-12-18T05:32:07;57.17;;;28.87;;
14052;SDS011;7101;51.600;7.310;2022-12-18T05:34:34;58.80;;;28.53;;
14052;SDS011;7101;51.600;7.310;2022-12-18T05:37:00;51.60;;;27.57;;
14052;SDS011;7101;51.600;7.310;2022-12-18T05:39:27;55.13;;;26.80;;
14052;SDS011;7101;51.600;7.310;2022-12-18T05:41:54;50.00;;;27.53;;
14052;SDS011;7101;51.600;7.310;2022-12-18T05:44:22;52.10;;;26.70;;
14052;SDS011;7101;51.600;7.310;2022-12-18T05:46:49;47.50;;;25.03;;
14052;SDS011;7101;51.600;7.310;2022-12-18T05:49:16;49.63;;;25.67;;
14052;SDS011;7101;51.600;7.310;2022-12-18T05:51:43;51.73;;;26.17;;
14052;SDS011;7101;51.600;7.310;2022-12-18T05:54:10;55.27;;;28.57;;
14052;SDS011;7101;51.600;7.310;2022-12-18T05:56:36;52.87;;;27.10;;
14052;SDS011;7101;51.600;7.310;2022-12-18T05:59:03;56.67;;;29.47;;
14052;SDS011;7101;51.600;7.310;2022-12-18T06:01:31;51.90;;;27.37;;
14052;SDS011;7101;51.600;7.310;2022-12-18T06:03:58;53.40;;;27.60;;
14052;SDS011;7101;51.600;7.310;2022-12-18T06:06:25;59.20;;;27.53;;
14052;SDS011;7101;51.600;7.310;2022-12-18T06:08:53;48.47;;;25.60;;
14052;SDS011;7101;51.600;7.310;2022-12-18T06:11:22;46.60;;;25.40;;
14052;SDS011;7101;51.600;7.310;2022-12-18T06:13:50;50.87;;;26.10;;
14052;SDS011;7101;51.600;7.310;2022-12-18T06:16:18;53.57;;;25.07;;
14052;SDS011;7101;51.600;7.310;2022-12-18T06:18:46;48.10;;;26.10;;
14052;SDS011;7101;51.600;7.310;2022-12-18T06:21:12;43.43;;;23.93;;
14052;SDS011;7101;51.600;7.310;2022-12-18T06:23:40;49.50;;;25.90;;
14052;SDS011;7101;51.600;7.310;2022-12-18T06:26:07;46.77;;;25.33;;
14052;SDS011;7101;51.600;7.310;2022-12-18T06:28:35;53.23;;;26.87;;
14052;SDS011;7101;51.600;7.310;2022-12-18T06:31:02;48.97;;;25.93;;
14052;SDS011;7101;51.600;7.310;2022-12-18T06:33:30;52.20;;;26.20;;
14052;SDS011;7101;51.600;7.310;2022-12-18T06:36:00;56.37;;;26.77;;
14052;SDS011;7101;51.600;7.310;2022-12-18T06:38:28;58.37;;;28.57;;
14052;SDS011;7101;51.600;7.310;2022-12-18T06:40:55;56.03;;;27.93;;
14052;SDS011;7101;51.600;7.310;2022-12-18T06:43:22;48.37;;;25.93;;
14052;SDS011;7101;51.600;7.310;2022-12-18T06:45:49;51.00;;;26.53;;
14052;SDS011;7101;51.600;7.310;2022-12-18T06:48:17;53.93;;;27.53;;
14052;SDS011;7101;51.600;7.310;2022-12-18T06:50:44;49.47;;;27.43;;
14052;SDS011;7101;51.600;7.310;2022-12-18T06:53:13;51.57;;;27.13;;
14052;SDS011;7101;51.600;7.310;2022-12-18T06:55:40;51.23;;;27.23;;
14052;SDS011;7101;51.600;7.310;2022-12-18T06:58:06;56.20;;;27.07;;
14052;SDS011;7101;51.600;7.310;2022-12-18T07:00:35;58.33;;;30.10;;
14052;SDS011;7101;51.600;7.310;2022-12-18T07:03:03;53.57;;;28.70;;
14052;SDS011;7101;51.600;7.310;2022-12-18T07:05:30;59.10;;;30.97;;
14052;SDS011;7101;51.600;7.310;2022-12-18T07:07:57;55.83;;;29.00;;
14052;SDS011;7101;51.600;7.310;2022-12-18T07:10:26;55.43;;;28.23;;
14052;SDS011;7101;51.600;7.310;2022-12-18T07:12:53;54.43;;;27.60;;
14052;SDS011;7101;51.600;7.310;2022-12-18T07:15:20;54.13;;;28.83;;
14052;SDS011;7101;51.600;7.310;2022-12-18T07:17:46;53.77;;;27.60;;
14052;SDS011;7101;51.600;7.310;2022-12-18T07:20:13;56.03;;;28.53;;
14052;SDS011;7101;51.600;7.310;2022-12-18T07:22:40;64.63;;;31.07;;
14052;SDS011;7101;51.600;7.310;2022-12-18T07:25:07;70.43;;;34.87;;
14052;SDS011;7101;51.600;7.310;2022-12-18T07:27:35;68.43;;;35.20;;
14052;SDS011;7101;51.600;7.310;2022-12-18T07:30:02;71.73;;;36.57;;
14052;SDS011;7101;51.600;7.310;2022-12-18T07:32:30;66.90;;;34.57;;
14052;SDS011;7101;51.600;7.310;2022-12-18T07:34:56;52.23;;;26.23;;
14052;SDS011;7101;51.600;7.310;2022-12-18T07:37:23;52.43;;;26.47;;
14052;SDS011;7101;51.600;7.310;2022-12-18T07:39:50;44.80;;;24.47;;
14052;SDS011;7101;51.600;7.310;2022-12-18T07:42:17;47.27;;;24.70;;
14052;SDS011;7101;51.600;7.310;2022-12-18T07:45:01;42.97;;;24.20;;
14052;SDS011;7101;51.600;7.310;2022-12-18T07:47:28;44.10;;;23.63;;
14052;SDS011;7101;51.600;7.310;2022-12-18T07:49:55;44.23;;;24.50;;
14052;SDS011;7101;51.600;7.310;2022-12-18T07:52:22;46.23;;;24.30;;
14052;SDS011;7101;51.600;7.310;2022-12-18T07:54:49;43.20;;;23.90;;
14052;SDS011;7101;51.600;7.310;2022-12-18T07:57:16;44.53;;;24.37;;
14052;SDS011;7101;51.600;7.310;2022-12-18T07:59:42;47.90;;;24.77;;
14052;SDS011;7101;51.600;7.310;2022-12-18T08:02:11;43.27;;;23.27;;
14052;SDS011;7101;51.600;7.310;2022-12-18T08:04:37;44.83;;;23.83;;
14052;SDS011;7101;51.600;7.310;2022-12-18T08:07:04;45.43;;;25.53;;
14052;SDS011;7101;51.600;7.310;2022-12-18T08:09:31;38.80;;;23.27;;
14052;SDS011;7101;51.600;7.310;2022-12-18T08:11:58;43.27;;;24.27;;
14052;SDS011;7101;51.600;7.310;2022-12-18T08:14:25;44.30;;;24.50;;
14052;SDS011;7101;51.600;7.310;2022-12-18T08:16:52;40.30;;;23.67;;
14052;SDS011;7101;51.600;7.310;2022-12-18T08:19:20;38.50;;;22.50;;
14052;SDS011;7101;51.600;7.310;2022-12-18T08:21:47;42.57;;;22.70;;
14052;SDS011;7101;51.600;7.310;2022-12-18T08:24:14;39.93;;;23.00;;
14052;SDS011;7101;51.600;7.310;2022-12-18T08:26:40;43.60;;;24.37;;
14052;SDS011;7101;51.600;7.310;2022-12-18T08:29:08;42.77;;;24.10;;
14052;SDS011;7101;51.600;7.310;2022-12-18T08:31:35;37.43;;;21.77;;
14052;SDS011;7101;51.600;7.310;2022-12-18T08:34:02;33.27;;;20.27;;
14052;SDS011;7101;51.600;7.310;2022-12-18T08:36:30;31.70;;;19.37;;
14052;SDS011;7101;51.600;7.310;2022-12-18T08:38:57;34.10;;;19.60;;
14052;SDS011;7101;51.600;7.310;2022-12-18T08:41:24;27.03;;;16.23;;
14052;SDS011;7101;51.600;7.310;2022-12-18T08:43:51;30.70;;;18.27;;
14052;SDS011;7101;51.600;7.310;2022-12-18T08:46:36;27.47;;;16.43;;
14052;SDS011;7101;51.600;7.310;2022-12-18T08:49:04;30.60;;;17.40;;
14052;SDS011;7101;51.600;7.310;2022-12-18T08:51:33;32.57;;;17.23;;
14052;SDS011;7101;51.600;7.310;2022-12-18T08:54:01;25.40;;;15.57;;
14052;SDS011;7101;51.600;7.310;2022-12-18T08:56:28;26.80;;;15.03;;
14052;SDS011;7101;51.600;7.310;2022-12-18T08:58:56;24.57;;;15.17;;
14052;SDS011;7101;51.600;7.310;2022-12-18T09:01:23;24.03;;;14.43;;
14052;SDS011;7101;51.600;7.310;2022-12-18T09:03:50;25.73;;;15.73;;
14052;SDS011;7101;51.600;7.310;2022-12-18T09:06:18;32.53;;;15.87;;
14052;SDS011;7101;51.600;7.310;2022-12-18T09:08:47;23.40;;;14.97;;
14052;SDS011;7101;51.600;7.310;2022-12-18T09:11:14;24.40;;;14.50;;
14052;SDS011;7101;51.600;7.310;2022-12-18T09:13:49;23.63;;;15.57;;
14052;SDS011;7101;51.600;7.310;2022-12-18T09:16:17;24.70;;;15.13;;
14052;SDS011;7101;51.600;7.310;2022-12-18T09:18:44;24.20;;;15.03;;
14052;SDS011;7101;51.600;7.310;2022-12-18T09:21:12;23.00;;;14.47;;
14052;SDS011;7101;51.600;7.310;2022-12-18T09:23:40;21.17;;;14.17;;
14052;SDS011;7101;51.600;7.310;2022-12-18T09:26:08;26.40;;;15.33;;
14052;SDS011;7101;51.600;7.310;2022-12-18T09:28:35;25.30;;;14.87;;
14052;SDS011;7101;51.600;7.310;2022-12-18T09:31:03;23.80;;;14.60;;
14052;SDS011;7101;51.600;7.310;2022-12-18T09:33:32;20.53;;;14.33;;
14052;SDS011;7101;51.600;7.310;2022-12-18T09:36:00;21.23;;;13.80;;
14052;SDS011;7101;51.600;7.310;2022-12-18T09:38:27;23.87;;;14.87;;
14052;SDS011;7101;51.600;7.310;2022-12-18T09:40:56;19.77;;;14.13;;
14052;SDS011;7101;51.600;7.310;2022-12-18T09:43:29;19.27;;;12.87;;
14052;SDS011;7101;51.600;7.310;2022-12-18T09:46:03;18.30;;;12.43;;
14052;SDS011;7101;51.600;7.310;2022-12-18T09:48:35;20.73;;;13.47;;
14052;SDS011;7101;51.600;7.310;2022-12-18T09:51:05;25.83;;;13.73;;
14052;SDS011;7101;51.600;7.310;2022-12-18T09:53:39;20.83;;;13.57;;
14052;SDS011;7101;51.600;7.310;2022-12-18T09:56:10;19.43;;;12.97;;
14052;SDS011;7101;51.600;7.310;2022-12-18T09:58:43;20.10;;;13.57;;
14052;SDS011;7101;51.600;7.310;2022-12-18T10:01:15;21.60;;;13.07;;
14052;SDS011;7101;51.600;7.310;2022-12-18T10:03:47;18.27;;;12.40;;
14052;SDS011;7101;51.600;7.310;2022-12-18T10:06:15;17.17;;;11.80;;
14052;SDS011;7101;51.600;7.310;2022-12-18T10:08:49;16.75;;;11.48;;
14052;SDS011;7101;51.600;7.310;2022-12-18T10:11:32;16.50;;;11.70;;
14052;SDS011;7101;51.600;7.310;2022-12-18T10:14:09;18.75;;;12.07;;
14052;SDS011;7101;51.600;7.310;2022-12-18T10:16:44;16.17;;;11.77;;
14052;SDS011;7101;51.600;7.310;2022-12-18T10:19:23;17.10;;;12.37;;
14052;SDS011;7101;51.600;7.310;2022-12-18T10:22:20;19.75;;;12.00;;
14052;SDS011;7101;51.600;7.310;2022-12-18T10:24:59;18.13;;;11.27;;
14052;SDS011;7101;51.600;7.310;2022-12-18T10:27:30;17.23;;;11.00;;
14052;SDS011;7101;51.600;7.310;2022-12-18T10:29:58;18.95;;;10.65;;
14052;SDS011;7101;51.600;7.310;2022-12-18T10:32:37;16.77;;;10.47;;
14052;SDS011;7101;51.600;7.310;2022-12-18T10:35:07;16.98;;;11.48;;
14052;SDS011;7101;51.600;7.310;2022-12-18T10:37:58;17.80;;;11.43;;
14052;SDS011;7101;51.600;7.310;2022-12-18T10:40:27;18.02;;;11.30;;
14052;SDS011;7101;51.600;7.310;2022-12-18T10:43:02;16.77;;;12.15;;
14052;SDS011;7101;51.600;7.310;2022-12-18T10:45:32;14.00;;;10.25;;
14052;SDS011;7101;51.600;7.310;2022-12-18T10:47:59;18.38;;;11.27;;
14052;SDS011;7101;51.600;7.310;2022-12-18T10:50:26;16.70;;;10.97;;
14052;SDS011;7101;51.600;7.310;2022-12-18T10:52:57;15.30;;;10.53;;
14052;SDS011;7101;51.600;7.310;2022-12-18T10:55:27;16.58;;;10.60;;
14052;SDS011;7101;51.600;7.310;2022-12-18T10:58:01;15.70;;;10.70;;
14052;SDS011;7101;51.600;7.310;2022-12-18T11:00:44;16.83;;;11.37;;
14052;SDS011;7101;51.600;7.310;2022-12-18T11:06:00;17.23;;;10.68;;
14052;SDS011;7101;51.600;7.310;2022-12-18T11:08:29;17.70;;;11.30;;
14052;SDS011;7101;51.600;7.310;2022-12-18T11:11:00;15.50;;;10.50;;
14052;SDS011;7101;51.600;7.310;2022-12-18T11:13:28;13.70;;;10.35;;
14052;SDS011;7101;51.600;7.310;2022-12-18T11:15:58;13.52;;;9.70;;
14052;SDS011;7101;51.600;7.310;2022-12-18T11:18:26;15.47;;;9.97;;
14052;SDS011;7101;51.600;7.310;2022-12-18T11:20:55;14.23;;;10.00;;
14052;SDS011;7101;51.600;7.310;2022-12-18T11:23:23;16.08;;;9.98;;
14052;SDS011;7101;51.600;7.310;2022-12-18T11:25:55;12.57;;;9.55;;
14052;SDS011;7101;51.600;7.310;2022-12-18T11:28:27;14.73;;;10.85;;
14052;SDS011;7101;51.600;7.310;2022-12-18T11:31:16;14.70;;;9.82;;
14052;SDS011;7101;51.600;7.310;2022-12-18T11:33:46;14.05;;;9.45;;
14052;SDS011;7101;51.600;7.310;2022-12-18T11:36:17;12.82;;;9.20;;
14052;SDS011;7101;51.600;7.310;2022-12-18T11:38:45;16.25;;;10.32;;
14052;SDS011;7101;51.600;7.310;2022-12-18T11:41:16;16.08;;;10.40;;
14052;SDS011;7101;51.600;7.310;2022-12-18T11:44:09;17.58;;;10.98;;
14052;SDS011;7101;51.600;7.310;2022-12-18T11:46:43;13.73;;;10.45;;
14052;SDS011;7101;51.600;7.310;2022-12-18T11:49:15;17.17;;;10.43;;
14052;SDS011;7101;51.600;7.310;2022-12-18T11:51:47;14.43;;;9.48;;
14052;SDS011;7101;51.600;7.310;2022-12-18T11:54:20;14.27;;;10.48;;
14052;SDS011;7101;51.600;7.310;2022-12-18T11:56:48;16.33;;;10.07;;
14052;SDS011;7101;51.600;7.310;2022-12-18T11:59:21;16.85;;;9.90;;
14052;SDS011;7101;51.600;7.310;2022-12-18T12:01:58;13.50;;;9.32;;
14052;SDS011;7101;51.600;7.310;2022-12-18T12:04:41;16.80;;;8.90;;
14052;SDS011;7101;51.600;7.310;2022-12-18T12:07:28;13.05;;;8.98;;
14052;SDS011;7101;51.600;7.310;2022-12-18T12:10:09;13.63;;;9.57;;
14052;SDS011;7101;51.600;7.310;2022-12-18T12:12:51;15.90;;;9.48;;
14052;SDS011;7101;51.600;7.310;2022-12-18T12:15:27;14.60;;;9.52;;
14052;SDS011;7101;51.600;7.310;2022-12-18T12:18:04;17.73;;;9.65;;
14052;SDS011;7101;51.600;7.310;2022-12-18T12:20:42;14.35;;;9.57;;
14052;SDS011;7101;51.600;7.310;2022-12-18T12:23:20;11.93;;;8.85;;
14052;SDS011;7101;51.600;7.310;2022-12-18T12:25:56;14.07;;;9.68;;
14052;SDS011;7101;51.600;7.310;2022-12-18T12:28:31;15.85;;;9.45;;
14052;SDS011;7101;51.600;7.310;2022-12-18T12:31:16;12.13;;;9.05;;
14052;SDS011;7101;51.600;7.310;2022-12-18T12:33:56;15.13;;;9.38;;
14052;SDS011;7101;51.600;7.310;2022-12-18T12:36:34;14.02;;;9.27;;
14052;SDS011;7101;51.600;7.310;2022-12-18T12:39:12;13.65;;;9.35;;
14052;SDS011;7101;51.600;7.310;2022-12-18T12:41:41;11.98;;;8.75;;
14052;SDS011;7101;51.600;7.310;2022-12-18T12:44:30;14.35;;;8.98;;
14052;SDS011;7101;51.600;7.310;2022-12-18T12:47:00;13.60;;;9.18;;
14052;SDS011;7101;51.600;7.310;2022-12-18T12:49:34;14.50;;;9.60;;
14052;SDS011;7101;51.600;7.310;2022-12-18T12:52:03;14.15;;;9.25;;
14052;SDS011;7101;51.600;7.310;2022-12-18T12:54:33;14.07;;;9.30;;
14052;SDS011;7101;51.600;7.310;2022-12-18T12:57:02;13.15;;;8.70;;
14052;SDS011;7101;51.600;7.310;2022-12-18T12:59:36;11.88;;;8.07;;
14052;SDS011;7101;51.600;7.310;2022-12-18T13:02:14;12.45;;;8.20;;
14052;SDS011;7101;51.600;7.310;2022-12-18T13:04:51;12.38;;;8.30;;
14052;SDS011;7101;51.600;7.310;2022-12-18T13:07:24;14.63;;;8.57;;
14052;SDS011;7101;51.600;7.310;2022-12-18T13:12:52;14.90;;;9.65;;
14052;SDS011;7101;51.600;7.310;2022-12-18T13:15:23;15.13;;;9.38;;
14052;SDS011;7101;51.600;7.310;2022-12-18T13:21:12;11.60;;;8.45;;
14052;SDS011;7101;51.600;7.310;2022-12-18T13:23:46;12.48;;;8.63;;
14052;SDS011;7101;51.600;7.310;2022-12-18T13:26:29;13.73;;;8.60;;
14052;SDS011;7101;51.600;7.310;2022-12-18T13:29:01;10.82;;;8.02;;
14052;SDS011;7101;51.600;7.310;2022-12-18T13:34:27;13.65;;;9.02;;
14052;SDS011;7101;51.600;7.310;2022-12-18T13:37:33;14.15;;;8.73;;
14052;SDS011;7101;51.600;7.310;2022-12-18T13:40:02;10.75;;;8.10;;
14052;SDS011;7101;51.600;7.310;2022-12-18T13:42:50;13.32;;;8.98;;
14052;SDS011;7101;51.600;7.310;2022-12-18T13:45:39;13.07;;;9.00;;
14052;SDS011;7101;51.600;7.310;2022-12-18T13:48:21;18.25;;;10.10;;
14052;SDS011;7101;51.600;7.310;2022-12-18T13:50:49;16.45;;;9.85;;
14052;SDS011;7101;51.600;7.310;2022-12-18T13:53:21;16.35;;;9.73;;
14052;SDS011;7101;51.600;7.310;2022-12-18T13:55:52;12.15;;;9.13;;
14052;SDS011;7101;51.600;7.310;2022-12-18T13:58:19;14.20;;;9.43;;
14052;SDS011;7101;51.600;7.310;2022-12-18T14:00:46;16.35;;;9.20;;
14052;SDS011;7101;51.600;7.310;2022-12-18T14:03:17;13.88;;;9.82;;
14052;SDS011;7101;51.600;7.310;2022-12-18T14:05:46;14.60;;;9.07;;
14052;SDS011;7101;51.600;7.310;2022-12-18T14:08:30;13.63;;;9.68;;
14052;SDS011;7101;51.600;7.310;2022-12-18T14:11:01;16.27;;;10.38;;
14052;SDS011;7101;51.600;7.310;2022-12-18T14:13:31;16.55;;;10.38;;
14052;SDS011;7101;51.600;7.310;2022-12-18T14:16:00;14.80;;;9.93;;
14052;SDS011;7101;51.600;7.310;2022-12-18T14:18:29;13.52;;;9.63;;
14052;SDS011;7101;51.600;7.310;2022-12-18T14:21:00;14.02;;;9.57;;
14052;SDS011;7101;51.600;7.310;2022-12-18T14:23:31;12.43;;;8.82;;
14052;SDS011;7101;51.600;7.310;2022-12-18T14:25:59;12.48;;;9.05;;
14052;SDS011;7101;51.600;7.310;2022-12-18T14:28:27;16.55;;;9.27;;
14052;SDS011;7101;51.600;7.310;2022-12-18T14:30:54;13.65;;;9.15;;
14052;SDS011;7101;51.600;7.310;2022-12-18T14:33:22;15.23;;;9.48;;
14052;SDS011;7101;51.600;7.310;2022-12-18T14:35:54;13.63;;;8.63;;
14052;SDS011;7101;51.600;7.310;2022-12-18T14:38:23;14.27;;;10.00;;
14052;SDS011;7101;51.600;7.310;2022-12-18T14:40:54;13.98;;;9.43;;
14052;SDS011;7101;51.600;7.310;2022-12-18T14:43:24;14.75;;;9.13;;
14052;SDS011;7101;51.600;7.310;2022-12-18T14:45:51;15.30;;;9.43;;
14052;SDS011;7101;51.600;7.310;2022-12-18T14:48:19;13.02;;;9.45;;
14052;SDS011;7101;51.600;7.310;2022-12-18T14:50:54;11.90;;;8.60;;
14052;SDS011;7101;51.600;7.310;2022-12-18T14:53:23;14.30;;;10.10;;
14052;SDS011;7101;51.600;7.310;2022-12-18T14:56:09;15.85;;;9.07;;
14052;SDS011;7101;51.600;7.310;2022-12-18T14:58:43;13.98;;;9.43;;
14052;SDS011;7101;51.600;7.310;2022-12-18T15:01:17;15.90;;;10.73;;
14052;SDS011;7101;51.600;7.310;2022-12-18T15:03:49;14.38;;;9.07;;
14052;SDS011;7101;51.600;7.310;2022-12-18T15:06:17;13.68;;;9.32;;
14052;SDS011;7101;51.600;7.310;2022-12-18T15:08:50;14.50;;;9.88;;